createdAt,value
2017-09-23T00:01:13.730Z,13.20
2017-09-23T00:03:41.195Z,13.20
2017-09-23T00:06:08.649Z,13.30
2017-09-23T00:08:36.116Z,13.20
2017-09-23T00:11:04.378Z,13.00
2017-09-23T00:13:31.849Z,13.00
2017-09-23T00:15:59.286Z,12.90
2017-09-23T00:18:26.753Z,12.90
2017-09-23T00:20:54.992Z,12.70
2017-09-23T00:23:22.475Z,12.70
2017-09-23T00:25:49.938Z,12.50
2017-09-23T00:28:17.416Z,12.60
2017-09-23T00:30:45.657Z,12.70
2017-09-23T00:33:13.108Z,12.70
2017-09-23T00:35:40.563Z,12.60
2017-09-23T00:38:08.039Z,12.60
2017-09-23T00:40:35.493Z,12.60
2017-09-23T00:43:02.984Z,12.50
2017-09-23T00:45:30.431Z,12.30
2017-09-23T00:47:58.671Z,12.60
2017-09-23T00:50:26.132Z,12.50
2017-09-23T00:52:53.594Z,12.50
2017-09-23T00:55:21.033Z,12.30
2017-09-23T00:57:48.512Z,12.40
2017-09-23T01:00:16.740Z,12.40
2017-09-23T01:02:44.212Z,12.40
2017-09-23T01:05:12.411Z,12.40
2017-09-23T01:07:39.862Z,12.30
2017-09-23T01:10:07.336Z,12.30
2017-09-23T01:12:35.558Z,12.80
2017-09-23T01:15:03.011Z,12.70
2017-09-23T01:17:30.480Z,12.80
2017-09-23T01:19:57.929Z,12.80
2017-09-23T01:22:25.404Z,12.90
2017-09-23T01:24:52.903Z,13.00
2017-09-23T01:27:21.836Z,13.10
2017-09-23T01:29:50.167Z,13.10
2017-09-23T01:32:18.419Z,13.20
2017-09-23T01:34:45.887Z,13.20
2017-09-23T01:37:13.316Z,13.10
2017-09-23T01:39:40.841Z,13.10
2017-09-23T01:42:08.304Z,13.10
2017-09-23T01:44:35.753Z,13.10
2017-09-23T01:47:03.204Z,13.10
2017-09-23T01:49:30.780Z,13.30
2017-09-23T01:51:58.229Z,13.40
2017-09-23T01:54:25.699Z,13.20
2017-09-23T01:56:53.140Z,13.10
2017-09-23T01:59:20.616Z,13.10
2017-09-23T02:01:48.078Z,13.10
2017-09-23T02:04:15.538Z,13.20
2017-09-23T02:06:42.995Z,13.30
2017-09-23T02:09:10.444Z,13.30
2017-09-23T02:11:37.909Z,13.30
2017-09-23T02:14:05.364Z,13.20
2017-09-23T02:16:32.815Z,13.30
2017-09-23T02:19:00.281Z,13.30
2017-09-23T02:21:27.732Z,13.30
2017-09-23T02:23:55.188Z,13.20
2017-09-23T02:26:22.653Z,13.20
2017-09-23T02:28:50.134Z,13.20
2017-09-23T02:31:18.819Z,13.00
2017-09-23T02:33:47.053Z,12.80
2017-09-23T02:36:14.508Z,12.80
2017-09-23T02:38:42.077Z,13.00
2017-09-23T02:41:09.582Z,13.10
2017-09-23T02:43:37.060Z,13.10
2017-09-23T02:46:04.538Z,13.10
2017-09-23T02:48:32.001Z,13.00
2017-09-23T02:50:59.449Z,13.10
2017-09-23T02:53:26.915Z,13.10
2017-09-23T02:55:54.389Z,13.10
2017-09-23T02:58:21.828Z,13.00
2017-09-23T03:00:49.317Z,12.80
2017-09-23T03:03:16.771Z,12.80
2017-09-23T03:05:44.983Z,12.80
2017-09-23T03:08:12.456Z,12.80
2017-09-23T03:10:39.912Z,12.80
2017-09-23T03:13:07.383Z,12.80
2017-09-23T03:15:34.827Z,12.80
2017-09-23T03:18:02.307Z,12.70
2017-09-23T03:20:29.748Z,12.70
2017-09-23T03:22:57.217Z,12.70
2017-09-23T03:25:24.659Z,12.60
2017-09-23T03:27:52.141Z,12.50
2017-09-23T03:30:20.354Z,12.60
2017-09-23T03:32:47.792Z,12.60
2017-09-23T03:35:15.264Z,12.60
2017-09-23T03:37:42.716Z,12.70
2017-09-23T03:40:10.171Z,12.80
2017-09-23T03:42:37.627Z,12.80
2017-09-23T03:45:05.115Z,12.90
2017-09-23T03:47:32.559Z,12.80
2017-09-23T03:50:00.000Z,12.90
2017-09-23T03:52:27.468Z,12.80
2017-09-23T03:54:54.935Z,12.80
2017-09-23T03:57:22.604Z,12.80
2017-09-23T03:59:50.060Z,12.80
2017-09-23T04:02:17.531Z,12.70
2017-09-23T04:04:44.980Z,12.60
2017-09-23T04:07:12.565Z,12.40
2017-09-23T04:09:40.805Z,12.40
2017-09-23T04:12:08.263Z,12.40
2017-09-23T04:14:35.727Z,12.40
2017-09-23T04:17:03.200Z,12.30
2017-09-23T04:19:31.450Z,12.40
2017-09-23T04:21:58.905Z,12.30
2017-09-23T04:24:26.440Z,12.40
2017-09-23T04:26:53.899Z,12.40
2017-09-23T04:29:21.383Z,12.40
2017-09-23T04:31:48.836Z,12.40
2017-09-23T04:34:16.413Z,12.30
2017-09-23T04:36:43.863Z,12.20
2017-09-23T04:39:11.334Z,12.30
2017-09-23T04:41:38.810Z,12.30
2017-09-23T04:44:06.257Z,12.30
2017-09-23T04:46:33.737Z,12.40
2017-09-23T04:49:01.197Z,12.30
2017-09-23T04:51:28.665Z,12.30
2017-09-23T04:53:56.120Z,12.30
2017-09-23T04:56:23.609Z,12.40
2017-09-23T04:58:51.060Z,12.30
2017-09-23T05:01:18.511Z,12.30
2017-09-23T05:03:45.984Z,12.40
2017-09-23T05:06:13.436Z,12.40
2017-09-23T05:08:40.907Z,12.40
2017-09-23T05:11:09.149Z,12.50
2017-09-23T05:13:36.640Z,12.50
2017-09-23T05:16:04.869Z,12.50
2017-09-23T05:18:33.108Z,12.50
2017-09-23T05:21:00.561Z,12.50
2017-09-23T05:23:28.036Z,12.60
2017-09-23T05:25:55.492Z,12.50
2017-09-23T05:28:23.667Z,12.40
2017-09-23T05:30:51.136Z,12.50
2017-09-23T05:33:18.593Z,12.50
2017-09-23T05:35:46.086Z,12.50
2017-09-23T05:38:13.532Z,12.50
2017-09-23T05:40:40.995Z,12.40
2017-09-23T05:43:08.509Z,12.40
2017-09-23T05:45:36.104Z,12.40
2017-09-23T05:48:03.556Z,12.50
2017-09-23T05:50:31.004Z,12.50
2017-09-23T05:52:58.486Z,12.60
2017-09-23T05:55:26.264Z,12.50
2017-09-23T05:57:54.512Z,12.60
2017-09-23T06:00:21.980Z,12.60
2017-09-23T06:02:49.440Z,12.70
2017-09-23T06:05:17.687Z,12.80
2017-09-23T06:07:45.114Z,12.80
2017-09-23T06:10:12.736Z,12.80
2017-09-23T06:12:40.199Z,12.90
2017-09-23T06:15:08.448Z,12.80
2017-09-23T06:17:35.912Z,12.80
2017-09-23T06:20:03.372Z,12.80
2017-09-23T06:22:30.845Z,12.70
2017-09-23T06:24:59.056Z,13.00
2017-09-23T06:27:26.537Z,13.00
2017-09-23T06:29:53.999Z,12.90
2017-09-23T06:32:21.497Z,12.80
2017-09-23T06:34:48.946Z,12.80
2017-09-23T06:37:17.183Z,12.90
2017-09-23T06:39:44.696Z,12.90
2017-09-23T06:42:12.779Z,12.90
2017-09-23T06:44:40.352Z,13.10
2017-09-23T06:47:07.839Z,13.20
2017-09-23T06:49:35.277Z,13.50
2017-09-23T06:52:02.742Z,13.70
2017-09-23T06:54:30.184Z,13.80
2017-09-23T06:56:57.653Z,13.90
2017-09-23T06:59:25.117Z,14.20
2017-09-23T07:01:52.596Z,14.50
2017-09-23T07:04:20.803Z,14.70
2017-09-23T07:06:48.298Z,14.70
2017-09-23T07:09:15.757Z,14.70
2017-09-23T07:11:43.199Z,14.90
2017-09-23T07:14:10.660Z,14.90
2017-09-23T07:16:38.104Z,15.00
2017-09-23T07:19:05.572Z,15.20
2017-09-23T07:21:33.021Z,15.30
2017-09-23T07:24:00.585Z,15.20
2017-09-23T07:26:28.053Z,15.30
2017-09-23T07:28:55.515Z,15.40
2017-09-23T07:31:22.977Z,15.70
2017-09-23T07:33:50.442Z,16.00
2017-09-23T07:36:17.909Z,16.10
2017-09-23T07:38:45.370Z,16.10
2017-09-23T07:41:13.600Z,16.10
2017-09-23T07:43:41.070Z,16.10
2017-09-23T07:46:08.540Z,15.70
2017-09-23T07:48:35.984Z,15.80
2017-09-23T07:51:03.466Z,15.90
2017-09-23T07:53:30.921Z,16.10
2017-09-23T07:55:59.133Z,16.20
2017-09-23T07:58:26.629Z,16.20
2017-09-23T08:00:54.068Z,16.40
2017-09-23T08:03:21.565Z,16.40
2017-09-23T08:05:49.792Z,16.70
2017-09-23T08:08:17.246Z,16.70
2017-09-23T08:10:45.481Z,16.70
2017-09-23T08:13:12.933Z,16.70
2017-09-23T08:15:41.165Z,16.90
2017-09-23T08:18:08.631Z,16.90
2017-09-23T08:20:36.096Z,17.00
2017-09-23T08:23:03.561Z,16.40
2017-09-23T08:25:31.795Z,17.00
2017-09-23T08:27:59.245Z,17.00
2017-09-23T08:30:26.700Z,18.20
2017-09-23T08:32:54.167Z,19.20
2017-09-23T08:35:21.609Z,20.70
2017-09-23T08:37:49.084Z,21.40
2017-09-23T08:40:16.621Z,22.40
2017-09-23T08:42:44.080Z,23.70
2017-09-23T08:45:11.543Z,24.60
2017-09-23T08:47:39.007Z,25.50
2017-09-23T08:50:06.488Z,26.30
2017-09-23T08:52:34.012Z,26.30
2017-09-23T08:55:01.500Z,24.70
2017-09-23T08:57:28.975Z,24.50
2017-09-23T08:59:57.204Z,23.60
2017-09-23T09:02:24.640Z,23.50
2017-09-23T09:04:52.094Z,24.30
2017-09-23T09:07:19.554Z,24.90
2017-09-23T09:09:47.000Z,25.30
2017-09-23T09:12:14.540Z,25.60
2017-09-23T09:14:42.464Z,25.30
2017-09-23T09:17:09.940Z,25.50
2017-09-23T09:19:37.390Z,25.70
2017-09-23T09:22:04.853Z,26.80
2017-09-23T09:24:32.339Z,26.70
2017-09-23T09:26:59.816Z,26.20
2017-09-23T09:29:27.259Z,27.00
2017-09-23T09:31:54.700Z,27.40
2017-09-23T09:34:22.932Z,26.70
2017-09-23T09:36:51.000Z,26.60
2017-09-23T09:39:18.480Z,27.00
2017-09-23T09:41:45.908Z,26.30
2017-09-23T09:44:13.348Z,26.10
2017-09-23T09:46:40.840Z,26.10
2017-09-23T09:49:08.311Z,26.70
2017-09-23T09:51:36.917Z,26.70
2017-09-23T09:54:04.369Z,26.70
2017-09-23T09:56:31.831Z,26.60
2017-09-23T09:58:59.304Z,26.90
2017-09-23T10:01:26.768Z,25.40
2017-09-23T10:03:54.237Z,25.10
2017-09-23T10:06:21.694Z,25.30
2017-09-23T10:08:49.153Z,24.90
2017-09-23T10:11:16.598Z,25.20
2017-09-23T10:13:44.054Z,25.20
2017-09-23T10:16:11.494Z,25.00
2017-09-23T10:18:38.965Z,25.10
2017-09-23T10:21:06.482Z,24.90
2017-09-23T10:23:34.735Z,24.50
2017-09-23T10:26:02.233Z,24.40
2017-09-23T10:28:30.440Z,22.50
2017-09-23T10:30:57.913Z,22.40
2017-09-23T10:33:25.372Z,22.10
2017-09-23T10:35:52.858Z,22.50
2017-09-23T10:38:21.061Z,22.10
2017-09-23T10:40:48.567Z,22.10
2017-09-23T10:43:16.049Z,22.20
2017-09-23T10:45:44.248Z,21.70
2017-09-23T10:48:11.720Z,21.60
2017-09-23T10:50:39.196Z,21.50
2017-09-23T10:53:06.776Z,21.40
2017-09-23T10:55:35.016Z,22.90
2017-09-23T10:58:03.268Z,23.60
2017-09-23T11:00:30.717Z,23.50
2017-09-23T11:02:58.172Z,23.80
2017-09-23T11:05:25.614Z,23.50
2017-09-23T11:07:53.095Z,23.00
2017-09-23T11:10:20.572Z,22.00
2017-09-23T11:12:48.061Z,22.20
2017-09-23T11:15:15.533Z,22.80
2017-09-23T11:17:43.751Z,24.40
2017-09-23T11:20:11.208Z,24.40
2017-09-23T11:22:38.654Z,25.00
2017-09-23T11:25:06.131Z,25.30
2017-09-23T11:27:34.365Z,25.30
2017-09-23T11:30:01.820Z,25.30
2017-09-23T11:32:29.293Z,24.60
2017-09-23T11:34:56.739Z,24.40
2017-09-23T11:37:24.221Z,24.60
2017-09-23T11:39:51.670Z,24.40
2017-09-23T11:42:19.180Z,24.20
2017-09-23T11:44:47.411Z,22.40
2017-09-23T11:47:14.860Z,22.40
2017-09-23T11:49:42.324Z,22.20
2017-09-23T11:52:09.781Z,22.70
2017-09-23T11:54:37.273Z,22.80
2017-09-23T11:57:04.720Z,22.70
2017-09-23T11:59:32.205Z,22.10
2017-09-23T12:02:00.411Z,21.60
2017-09-23T12:04:27.860Z,21.60
2017-09-23T12:06:55.316Z,21.50
2017-09-23T12:09:22.805Z,21.50
2017-09-23T12:11:50.281Z,21.50
2017-09-23T12:14:17.735Z,21.60
2017-09-23T12:16:45.172Z,21.40
2017-09-23T12:19:12.644Z,21.90
2017-09-23T12:21:40.099Z,22.90
2017-09-23T12:24:07.545Z,23.50
2017-09-23T12:26:34.997Z,24.20
2017-09-23T12:29:02.445Z,24.00
2017-09-23T12:31:29.931Z,23.90
2017-09-23T12:33:58.154Z,24.30
2017-09-23T12:36:25.611Z,24.10
2017-09-23T12:38:53.068Z,24.60
2017-09-23T12:41:20.524Z,24.50
2017-09-23T12:43:47.983Z,24.20
2017-09-23T12:46:15.437Z,24.90
2017-09-23T12:48:43.632Z,24.90
2017-09-23T12:51:11.085Z,24.30
2017-09-23T12:53:38.539Z,24.50
2017-09-23T12:56:06.009Z,23.80
2017-09-23T12:58:33.642Z,24.80
2017-09-23T13:01:01.105Z,25.30
2017-09-23T13:03:29.355Z,25.60
2017-09-23T13:05:56.814Z,25.60
2017-09-23T13:08:24.316Z,26.30
2017-09-23T13:10:51.776Z,25.50
2017-09-23T13:13:19.239Z,25.50
2017-09-23T13:15:46.719Z,25.30
2017-09-23T13:18:14.952Z,26.00
2017-09-23T13:20:42.404Z,26.00
2017-09-23T13:23:09.900Z,26.20
2017-09-23T13:25:38.140Z,25.60
2017-09-23T13:28:05.696Z,25.50
2017-09-23T13:30:33.216Z,24.70
2017-09-23T13:33:00.687Z,24.20
2017-09-23T13:35:28.215Z,23.50
2017-09-23T13:37:56.521Z,22.80
2017-09-23T13:40:24.000Z,22.70
2017-09-23T13:42:51.515Z,22.80
2017-09-23T13:45:19.724Z,23.30
2017-09-23T13:47:47.185Z,23.20
2017-09-23T13:50:14.677Z,23.30
2017-09-23T13:52:42.948Z,22.60
2017-09-23T13:55:10.408Z,22.50
2017-09-23T13:57:38.626Z,22.80
2017-09-23T14:00:06.095Z,22.90
2017-09-23T14:02:33.560Z,23.20
2017-09-23T14:05:01.019Z,24.20
2017-09-23T14:07:28.487Z,24.20
2017-09-23T14:09:55.940Z,24.10
2017-09-23T14:12:23.397Z,23.40
2017-09-23T14:14:50.845Z,23.50
2017-09-23T14:17:18.308Z,24.70
2017-09-23T14:19:45.749Z,25.00
2017-09-23T14:22:13.233Z,25.40
2017-09-23T14:24:40.704Z,26.10
2017-09-23T14:27:08.930Z,25.50
2017-09-23T14:29:36.413Z,25.50
2017-09-23T14:32:04.506Z,25.30
2017-09-23T14:34:31.961Z,24.50
2017-09-23T14:37:00.176Z,24.20
2017-09-23T14:39:27.655Z,24.20
2017-09-23T14:41:55.126Z,24.70
2017-09-23T14:44:22.612Z,24.90
2017-09-23T14:46:50.867Z,24.60
2017-09-23T14:49:18.353Z,24.60
2017-09-23T14:51:46.595Z,23.30
2017-09-23T14:54:14.034Z,23.30
2017-09-23T14:56:41.546Z,23.20
2017-09-23T14:59:08.987Z,23.30
2017-09-23T15:01:37.222Z,22.70
2017-09-23T15:04:04.654Z,22.70
2017-09-23T15:06:32.121Z,22.60
2017-09-23T15:08:59.581Z,22.30
2017-09-23T15:11:27.087Z,22.30
2017-09-23T15:13:55.341Z,21.80
2017-09-23T15:16:22.888Z,21.70
2017-09-23T15:18:50.366Z,21.60
2017-09-23T15:21:17.813Z,21.60
2017-09-23T15:23:45.277Z,21.30
2017-09-23T15:26:12.726Z,21.20
2017-09-23T15:28:40.249Z,21.10
2017-09-23T15:31:07.751Z,20.70
2017-09-23T15:33:35.236Z,20.60
2017-09-23T15:36:03.981Z,20.60
2017-09-23T15:38:31.420Z,20.50
2017-09-23T15:40:58.877Z,20.60
2017-09-23T15:43:26.353Z,20.40
2017-09-23T15:45:53.804Z,20.30
2017-09-23T15:48:21.273Z,20.30
2017-09-23T15:50:49.484Z,20.00
2017-09-23T15:53:16.972Z,19.90
2017-09-23T15:55:44.427Z,20.00
2017-09-23T15:58:12.480Z,19.90
2017-09-23T16:00:39.977Z,19.70
2017-09-23T16:03:07.476Z,19.80
2017-09-23T16:05:34.983Z,19.70
2017-09-23T16:08:02.429Z,19.70
2017-09-23T16:10:29.969Z,19.70
2017-09-23T16:12:57.421Z,19.70
2017-09-23T16:15:24.888Z,19.60
2017-09-23T16:17:52.456Z,19.60
2017-09-23T16:20:19.926Z,19.50
2017-09-23T16:22:47.437Z,19.50
2017-09-23T16:25:14.884Z,19.40
2017-09-23T16:27:42.424Z,19.40
2017-09-23T16:30:10.657Z,19.50
2017-09-23T16:32:38.131Z,19.40
2017-09-23T16:35:05.588Z,19.50
2017-09-23T16:37:33.102Z,19.40
2017-09-23T16:40:00.561Z,19.30
2017-09-23T16:42:28.021Z,19.30
2017-09-23T16:44:55.491Z,19.30
2017-09-23T16:47:22.965Z,19.40
2017-09-23T16:49:50.494Z,19.30
2017-09-23T16:52:17.952Z,19.20
2017-09-23T16:54:45.393Z,19.20
2017-09-23T16:57:12.852Z,19.20
2017-09-23T16:59:40.310Z,19.20
2017-09-23T17:02:07.804Z,19.10
2017-09-23T17:04:35.268Z,19.00
2017-09-23T17:07:02.786Z,18.90
2017-09-23T17:09:30.233Z,18.70
2017-09-23T17:11:57.687Z,18.70
2017-09-23T17:14:25.185Z,18.70
2017-09-23T17:16:52.632Z,18.50
2017-09-23T17:19:20.112Z,18.40
2017-09-23T17:21:48.340Z,18.20
2017-09-23T17:24:15.840Z,18.20
2017-09-23T17:26:43.288Z,18.10
2017-09-23T17:29:10.757Z,18.20
2017-09-23T17:31:38.195Z,18.20
2017-09-23T17:34:05.750Z,18.20
2017-09-23T17:36:33.217Z,18.10
2017-09-23T17:39:00.693Z,18.00
2017-09-23T17:41:28.943Z,18.00
2017-09-23T17:43:56.708Z,18.00
2017-09-23T17:46:24.175Z,17.90
2017-09-23T17:48:52.413Z,17.80
2017-09-23T17:51:19.876Z,17.80
2017-09-23T17:53:47.332Z,17.70
2017-09-23T17:56:15.576Z,17.70
2017-09-23T17:58:43.032Z,17.60
2017-09-23T18:01:10.496Z,17.60
2017-09-23T18:03:37.960Z,17.50
2017-09-23T18:06:05.406Z,17.50
2017-09-23T18:08:32.874Z,17.40
2017-09-23T18:11:00.327Z,17.30
2017-09-23T18:13:27.796Z,17.20
2017-09-23T18:15:55.240Z,17.30
2017-09-23T18:18:22.696Z,17.20
2017-09-23T18:20:50.972Z,17.00
2017-09-23T18:23:18.421Z,16.90
2017-09-23T18:25:45.885Z,16.90
2017-09-23T18:28:13.340Z,17.00
2017-09-23T18:30:40.811Z,17.00
2017-09-23T18:33:08.265Z,16.90
2017-09-23T18:35:35.754Z,16.80
2017-09-23T18:38:03.190Z,16.80
2017-09-23T18:40:30.746Z,16.80
2017-09-23T18:42:58.211Z,16.80
2017-09-23T18:45:25.671Z,16.80
2017-09-23T18:47:53.149Z,16.70
2017-09-23T18:50:21.364Z,16.70
2017-09-23T18:52:48.821Z,16.70
2017-09-23T18:55:16.306Z,16.60
2017-09-23T18:57:43.784Z,16.60
2017-09-23T19:00:11.263Z,16.60
2017-09-23T19:02:39.506Z,16.60
2017-09-23T19:05:06.953Z,16.60
2017-09-23T19:07:34.440Z,16.60
2017-09-23T19:10:02.683Z,16.50
2017-09-23T19:12:30.181Z,16.50
2017-09-23T19:14:58.413Z,16.50
2017-09-23T19:17:25.895Z,16.50
2017-09-23T19:19:54.113Z,16.40
2017-09-23T19:22:21.587Z,16.40
2017-09-23T19:24:49.033Z,16.50
2017-09-23T19:27:16.502Z,16.60
2017-09-23T19:29:43.953Z,16.60
2017-09-23T19:32:11.461Z,16.50
2017-09-23T19:34:39.749Z,16.40
2017-09-23T19:37:07.203Z,16.50
2017-09-23T19:39:34.693Z,16.40
2017-09-23T19:42:02.320Z,16.40
2017-09-23T19:44:29.789Z,16.40
2017-09-23T19:46:57.275Z,16.40
2017-09-23T19:49:24.730Z,16.40
2017-09-23T19:51:52.335Z,16.40
2017-09-23T19:54:20.574Z,16.40
2017-09-23T19:56:48.114Z,16.40
2017-09-23T19:59:15.571Z,16.40
2017-09-23T20:01:43.072Z,16.30
2017-09-23T20:04:11.311Z,16.20
2017-09-23T20:06:38.884Z,16.20
2017-09-23T20:09:06.358Z,16.20
2017-09-23T20:11:33.797Z,16.20
2017-09-23T20:14:01.274Z,16.30
2017-09-23T20:16:29.527Z,16.20
2017-09-23T20:18:56.982Z,16.20
2017-09-23T20:21:24.473Z,16.30
2017-09-23T20:23:52.724Z,16.20
2017-09-23T20:26:20.192Z,16.10
2017-09-23T20:28:48.403Z,16.10
2017-09-23T20:31:15.900Z,16.00
2017-09-23T20:33:43.359Z,16.10
2017-09-23T20:36:10.819Z,16.10
2017-09-23T20:38:38.302Z,16.10
2017-09-23T20:41:06.564Z,16.10
2017-09-23T20:43:34.038Z,16.00
2017-09-23T20:46:02.283Z,16.10
2017-09-23T20:48:29.742Z,16.10
2017-09-23T20:50:58.059Z,16.10
2017-09-23T20:53:25.535Z,16.00
2017-09-23T20:55:53.015Z,16.10
2017-09-23T20:58:20.490Z,16.10
2017-09-23T21:00:47.938Z,16.00
2017-09-23T21:03:15.411Z,16.10
2017-09-23T21:05:43.709Z,16.00
2017-09-23T21:08:11.915Z,16.10
2017-09-23T21:10:39.407Z,16.10
2017-09-23T21:13:06.858Z,16.10
2017-09-23T21:15:34.339Z,16.10
2017-09-23T21:18:02.544Z,16.10
2017-09-23T21:20:30.030Z,16.10
2017-09-23T21:22:57.520Z,16.00
2017-09-23T21:25:25.784Z,16.00
2017-09-23T21:27:53.249Z,15.90
2017-09-23T21:30:20.707Z,16.00
2017-09-23T21:32:48.956Z,16.00
2017-09-23T21:35:16.403Z,16.00
2017-09-23T21:37:43.880Z,16.00
2017-09-23T21:40:11.356Z,15.90
2017-09-23T21:42:39.561Z,15.90
2017-09-23T21:45:07.032Z,15.90
2017-09-23T21:47:34.552Z,15.90
2017-09-23T21:50:02.809Z,16.00
2017-09-23T21:52:31.033Z,15.90
2017-09-23T21:54:58.515Z,15.90
2017-09-23T21:57:25.974Z,15.90
2017-09-23T21:59:53.432Z,15.90
2017-09-23T22:02:20.869Z,15.90
2017-09-23T22:04:48.375Z,15.80
2017-09-23T22:07:16.613Z,15.80
2017-09-23T22:09:44.079Z,15.80
2017-09-23T22:12:11.555Z,15.80
2017-09-23T22:14:39.780Z,15.70
2017-09-23T22:17:07.253Z,15.70
2017-09-23T22:19:34.705Z,15.60
2017-09-23T22:22:02.179Z,15.60
2017-09-23T22:24:29.631Z,15.60
2017-09-23T22:26:57.075Z,15.60
2017-09-23T22:29:24.641Z,15.50
2017-09-23T22:31:52.136Z,15.50
2017-09-23T22:34:20.457Z,15.50
2017-09-23T22:36:47.916Z,15.40
2017-09-23T22:39:15.360Z,15.50
2017-09-23T22:41:42.836Z,15.60
2017-09-23T22:44:10.286Z,15.60
2017-09-23T22:46:37.743Z,15.60
2017-09-23T22:49:05.203Z,15.60
2017-09-23T22:51:32.681Z,15.60
2017-09-23T22:54:00.127Z,15.50
2017-09-23T22:56:27.602Z,15.50
2017-09-23T22:58:55.048Z,15.50
2017-09-23T23:01:22.519Z,15.50
2017-09-23T23:03:50.740Z,15.50
2017-09-23T23:06:18.212Z,15.50
2017-09-23T23:08:45.684Z,15.40
2017-09-23T23:11:13.128Z,15.50
2017-09-23T23:13:40.621Z,15.50
2017-09-23T23:16:08.871Z,15.50
2017-09-23T23:18:36.348Z,15.40
2017-09-23T23:21:05.173Z,15.40
2017-09-23T23:23:32.711Z,15.40
2017-09-23T23:26:00.986Z,15.40
2017-09-23T23:28:29.244Z,15.40
2017-09-23T23:30:56.711Z,15.30
2017-09-23T23:33:24.951Z,15.40
2017-09-23T23:35:52.425Z,15.30
2017-09-23T23:38:19.876Z,15.30
2017-09-23T23:40:47.356Z,15.30
2017-09-23T23:43:15.589Z,15.30
2017-09-23T23:45:43.809Z,15.20
2017-09-23T23:48:12.058Z,15.20
2017-09-23T23:50:39.513Z,15.20
2017-09-23T23:53:06.976Z,15.20
2017-09-23T23:55:35.192Z,15.10
2017-09-23T23:58:02.656Z,15.10
